Date,TemperatureHighF,TemperatureAvgF,TemperatureLowF,DewpointHighF,DewpointAvgF,DewpointLowF,HumidityHigh,HumidityAvg,HumidityLow,PressureMaxIn,PressureMinIn,WindSpeedMaxMPH,WindSpeedAvgMPH,GustSpeedMaxMPH,PrecipitationSumIn
2013-1-1,27,17,5,20,12,1,92,78,61,0.00,40.00,21,8,27,0.00
2013-1-2,24,22,18,21,18,8,92,83,62,0.00,40.00,18,10,22,0.00
2013-1-3,33,26,22,27,23,17,94,87,72,0.00,40.00,24,10,33,0.00
2013-1-4,36,33,31,30,26,22,85,75,68,0.00,40.00,30,17,42,0.00
2013-1-5,35,32,29,32,27,23,93,81,70,0.00,40.00,16,9,19,0.00
2013-1-6,34,31,29,33,28,23,99,88,68,0.00,40.00,14,8,17,0.00
2013-1-7,44,36,25,35,29,21,87,77,65,0.00,40.00,31,16,54,0.00
2013-1-8,46,39,31,36,33,28,96,78,56,0.00,40.00,17,8,29,0.00
2013-1-9,43,40,37,38,34,29,94,77,66,0.00,40.00,26,15,42,0.00
2013-1-10,43,38,33,36,32,29,93,78,65,0.00,40.00,20,9,24,0.00
2013-1-11,46,42,40,43,-17,-100,99,56,79,0.00,40.00,23,12,29,0.00
2013-1-12,52,45,38,50,-22,-100,99,46,72,0.00,40.00,31,14,57,0.00
2013-1-13,38,35,31,34,32,28,96,88,78,0.00,40.00,16,7,23,0.00
2013-1-14,31,27,21,29,20,14,94,78,51,0.00,40.00,16,2,26,0.00
2013-1-15,33,28,17,27,20,10,94,72,61,0.00,40.00,19,10,29,0.00
2013-1-16,35,32,22,34,26,14,99,78,59,0.00,40.00,26,16,37,0.00
2013-1-17,22,13,4,15,6,-2,85,74,54,0.00,40.00,23,11,32,0.00
2013-1-18,28,17,7,27,14,2,97,85,62,0.00,40.00,16,8,21,0.00
2013-1-19,34,28,24,33,21,-100,99,91,85,0.00,40.00,23,8,39,0.00
2013-1-20,32,17,6,26,12,0,92,81,66,0.00,40.00,41,19,60,0.00
2013-1-21,15,6,-8,11,2,-13,89,80,67,0.00,40.00,24,11,32,0.00
2013-1-22,6,-3,-11,2,-9,-16,85,77,62,0.00,40.00,14,4,19,0.00
2013-1-23,19,9,-3,8,1,-8,86,71,54,0.00,40.00,14,6,20,0.00
2013-1-24,16,0,-17,5,-6,-22,84,75,54,0.00,40.00,14,4,16,0.00
2013-1-25,25,16,2,21,12,-2,92,87,77,0.00,40.00,19,9,26,0.00
2013-1-26,30,16,1,22,12,-3,92,85,66,0.00,40.00,10,3,11,0.00
2013-1-27,29,19,11,25,17,9,92,90,81,0.00,40.00,11,8,16,0.00
2013-1-28,38,36,34,36,35,33,99,97,92,0.00,40.00,8,-7,11,0.00
2013-1-29,41,38,34,41,0,-100,99,71,94,0.00,40.00,26,13,35,0.00
2013-1-30,40,35,18,39,1,-100,99,73,88,0.00,40.00,22,14,28,0.00
2013-1-31,19,16,10,17,12,5,91,87,76,0.00,40.00,22,11,29,0.00
2013-2-1,20,11,2,14,6,-2,89,82,71,0.00,40.00,14,6,25,0.00
2013-2-2,19,9,-1,13,4,-6,88,80,68,0.00,40.00,12,5,20,0.00
2013-2-3,23,10,-10,19,5,-14,88,82,74,0.00,40.00,28,7,34,0.00
2013-2-4,19,5,-13,13,0,-18,86,78,58,0.00,40.00,13,5,16,0.00
2013-2-5,26,14,-3,23,11,-6,91,85,79,0.00,40.00,21,7,30,0.00
2013-2-6,20,12,-9,17,8,-14,89,82,65,0.00,40.00,12,8,19,0.00
2013-2-7,22,18,15,19,14,12,92,87,82,0.00,40.00,19,13,25,0.00
2013-2-8,24,17,-6,18,11,-11,90,79,65,0.00,40.00,13,8,17,0.00
2013-2-9,30,9,-17,20,4,-22,89,79,60,0.00,40.00,16,8,19,0.00
2013-2-10,38,30,7,37,27,4,96,88,77,0.00,40.00,32,14,82,0.00
2013-2-11,43,38,31,42,35,-100,99,94,86,0.00,40.00,30,13,46,0.00
2013-2-12,34,31,27,28,26,23,90,83,72,0.00,40.00,15,10,21,0.00
2013-2-13,42,35,28,35,30,23,92,84,67,0.00,40.00,19,8,29,0.00
2013-2-14,40,36,29,39,35,24,99,93,87,0.00,40.00,27,9,40,0.00
2013-2-15,28,22,14,25,16,8,88,79,71,0.00,40.00,27,12,40,0.00
2013-2-16,18,11,-2,9,4,-6,87,76,56,0.00,40.00,13,5,19,0.00
2013-2-17,26,11,-4,11,3,-8,84,72,44,0.00,40.00,10,5,16,0.00
2013-2-18,37,29,12,34,22,7,92,76,66,0.00,40.00,30,18,37,0.00
2013-2-19,40,31,16,38,-1,-100,99,73,91,0.00,40.00,69,15,175,0.00
2013-2-20,18,14,10,14,10,5,91,84,80,0.00,40.00,25,19,37,0.00
2013-2-21,23,14,8,17,9,3,89,79,68,0.00,40.00,21,7,27,0.00
2013-2-22,32,22,8,31,19,5,96,90,85,0.00,40.00,26,16,32,0.00
2013-2-23,39,32,21,37,30,17,98,93,81,0.00,40.00,13,4,17,0.00
2013-2-24,38,25,11,35,22,8,97,88,72,0.00,40.00,14,5,38,0.00
2013-2-25,38,33,28,33,30,27,94,88,75,0.00,40.00,11,4,11,0.00
2013-2-26,37,34,30,33,31,26,96,88,75,0.00,40.00,18,9,29,0.00
2013-2-27,40,36,29,35,32,26,98,86,78,0.00,40.00,20,14,26,0.00
2013-2-28,39,33,23,34,26,15,92,75,56,0.00,40.00,21,16,31,0.00
2013-3-1,29,22,14,18,14,9,82,72,61,0.00,40.00,19,12,24,0.00
2013-3-2,26,18,10,18,12,5,81,75,65,0.00,40.00,17,10,21,0.00
2013-3-3,26,14,1,18,9,-3,90,79,61,0.00,40.00,13,6,18,0.00
2013-3-4,30,14,-6,15,5,-11,88,70,38,0.00,40.00,13,5,14,0.00
2013-3-5,37,22,3,27,15,-1,90,76,54,0.00,40.00,15,6,17,0.00
2013-3-6,43,35,31,34,30,27,97,83,67,0.00,40.00,16,7,23,0.00
2013-3-7,35,31,26,30,27,23,93,85,76,0.00,40.00,16,10,21,0.00
2013-3-8,45,33,19,36,29,17,97,86,61,0.00,40.00,9,4,15,0.00
2013-3-9,44,33,20,37,29,18,96,85,56,0.00,40.00,25,-3,29,0.00
2013-3-10,43,40,38,43,39,37,99,97,94,0.00,40.00,20,9,41,0.00
2013-3-11,43,40,38,42,-42,-100,99,41,99,0.00,40.00,29,14,37,0.00
2013-5-16,62,49,45,45,12,-100,86,63,53,0.00,40.00,23,14,35,0.00
2013-5-17,72,55,37,50,39,-100,98,68,37,0.00,40.00,16,6,22,0.00
2013-5-18,71,58,41,51,46,38,93,67,40,0.00,40.00,23,11,29,0.00
2013-5-19,73,58,56,58,51,48,86,77,60,0.00,40.00,12,9,17,0.00
2013-5-20,69,64,62,63,59,56,99,88,76,0.00,40.00,31,15,40,0.00
2013-5-21,64,62,58,63,59,52,100,91,75,0.00,40.00,25,15,31,0.00
2013-5-22,63,61,57,62,56,54,99,84,75,0.00,40.00,16,9,21,0.00
2013-5-23,57,50,40,57,42,36,99,77,56,0.00,40.00,29,17,37,0.00
2013-5-24,58,47,34,39,36,31,89,66,45,0.00,40.00,17,10,24,0.00
2013-5-25,67,52,35,45,38,34,97,64,31,0.00,40.00,15,6,22,0.00
2013-5-26,72,58,37,47,39,31,96,56,23,0.00,40.00,14,4,20,0.00
2013-5-27,75,58,38,48,41,35,94,59,29,0.00,40.00,24,9,31,0.00
2013-5-28,59,55,48,57,48,38,100,79,59,0.00,40.00,23,13,32,0.00
2013-5-29,64,58,55,63,51,49,99,80,68,0.00,40.00,10,4,15,0.00
2013-5-30,88,77,58,73,66,52,99,71,56,0.00,40.00,21,10,28,0.00
2013-5-31,75,75,75,68,68,68,80,80,80,0.00,40.00,22,22,32,0.00
2013-6-2,62,53,50,57,47,42,99,82,72,0.00,40.00,25,17,37,0.00
2013-6-3,56,48,39,43,37,29,95,66,60,0.00,40.00,18,9,28,0.00
2013-6-4,72,61,39,49,38,26,80,45,35,0.00,40.00,10,6,17,0.00
2013-6-5,63,52,43,54,43,24,96,74,41,0.00,40.00,16,7,21,0.00
2013-6-6,72,58,48,51,41,32,89,58,26,0.00,40.00,23,8,33,0.00
2013-6-7,72,57,44,44,38,31,86,52,22,0.00,40.00,13,5,17,0.00
2013-6-8,78,61,43,58,46,29,96,61,36,0.00,40.00,10,4,16,0.00
2013-6-9,80,65,42,58,52,41,99,68,37,0.00,40.00,17,8,24,0.00
2013-6-10,76,65,58,66,59,48,100,80,62,0.00,40.00,18,10,25,0.00
2013-6-11,75,65,60,66,61,56,100,86,64,0.00,40.00,13,4,16,0.00
2013-6-12,76,65,51,64,57,50,100,79,51,0.00,40.00,10,4,14,0.00
2013-6-13,76,63,52,64,56,47,99,80,63,0.00,40.00,22,10,29,0.00
2013-7-20,-200,0,200,-100,-100,-100,0,0,100,0.00,40.00,6,6,10,0.00
2013-8-1,32,32,32,28,28,28,84,84,84,0.00,40.00,1,1,3,0.00
2013-9-8,-200,0,200,-100,-100,-100,0,0,100,0.00,40.00,4,4,4,0.00
2013-9-29,-200,0,200,-100,-100,-100,0,0,100,0.00,40.00,12,12,19,0.00
2013-10-11,58,58,58,52,52,52,80,80,79,0.00,40.00,6,4,8,0.00
2013-10-12,76,56,49,63,52,48,100,90,55,0.00,40.00,7,5,11,0.00
2013-10-13,66,53,51,61,36,-100,98,71,74,0.00,40.00,9,7,13,0.00
2013-10-14,64,48,36,49,42,36,100,83,48,0.00,40.00,5,2,8,0.00
2013-10-15,62,58,54,55,51,47,78,78,77,0.00,40.00,12,8,16,0.00
2013-10-16,60,58,52,55,52,46,100,83,77,0.00,40.00,9,6,12,0.00
2013-10-17,57,52,48,49,46,42,98,81,62,0.00,40.00,6,4,9,0.00
2013-10-18,57,51,42,51,45,39,99,82,68,0.00,40.00,6,4,11,0.00
2013-10-19,53,49,47,48,45,41,97,84,63,0.00,40.00,6,4,11,0.00
2013-10-20,53,41,33,47,37,31,95,87,69,0.00,40.00,5,3,7,0.00
2013-10-21,52,49,46,46,43,39,91,78,64,0.00,40.00,11,7,16,0.00
2013-10-22,50,44,35,42,37,29,92,79,62,0.00,40.00,14,11,21,0.00
2013-10-23,45,38,36,40,36,31,99,90,81,0.00,40.00,11,6,16,0.00
2013-10-24,44,43,42,36,35,34,75,74,74,0.00,40.00,6,6,10,0.00
2013-10-25,47,40,37,38,33,30,84,76,69,0.00,40.00,5,4,9,0.00
2013-10-26,46,43,38,45,39,33,97,86,75,0.00,40.00,12,8,16,0.00
2013-10-27,46,33,36,46,12,-100,100,71,76,0.00,40.00,3,2,4,0.00
2013-10-28,43,34,32,43,17,-100,97,77,58,0.00,40.00,9,6,14,0.00
2013-10-29,41,35,29,34,30,27,92,85,78,0.00,40.00,4,4,4,0.00
2013-10-30,52,51,50,48,48,48,93,90,86,0.00,40.00,6,4,7,0.00
2013-10-31,58,54,50,51,48,43,85,80,76,0.00,40.00,9,5,11,0.00
2013-11-1,56,52,48,52,48,46,99,89,79,0.00,40.00,13,6,19,0.00
2013-11-2,44,41,38,43,36,32,98,81,64,0.00,40.00,8,5,11,0.00
2013-11-3,47,36,32,36,23,-100,84,71,60,0.00,40.00,9,5,13,0.00
2013-11-4,52,49,43,41,39,37,77,69,62,30.31,30.21,23,17,33,0.00
2013-11-5,57,50,47,50,46,39,100,85,63,30.23,30.09,11,7,20,0.00
2013-11-6,56,53,49,55,53,49,100,99,99,30.09,29.71,11,8,15,0.00
2013-11-7,44,39,36,39,38,36,100,95,76,30.02,29.89,14,10,21,0.00
2013-11-8,43,38,34,38,36,32,100,92,67,30.16,30.05,10,6,15,0.00
2013-11-9,48,41,38,47,35,-100,99,92,94,30.09,29.57,15,11,24,0.00
2013-11-10,43,42,36,43,39,34,99,88,70,30.12,29.65,21,14,31,0.00
2013-11-11,45,33,30,36,26,21,100,74,60,30.22,29.89,24,20,33,0.00
2013-11-12,34,31,28,27,23,18,85,71,57,30.49,30.39,18,12,26,0.00
2013-11-13,48,37,26,38,27,15,83,66,50,30.40,29.81,26,13,38,0.00
2013-11-14,50,46,43,45,39,35,100,77,66,29.84,29.79,18,13,30,0.00
2013-11-15,56,48,42,46,44,42,100,88,68,29.92,29.81,14,8,19,0.00
2013-11-16,54,44,33,54,39,-100,100,92,80,29.93,29.56,17,10,25,0.00
2013-11-17,62,58,50,62,58,49,100,99,99,29.56,28.98,25,12,39,0.00
2013-11-19,37,32,26,28,26,25,97,79,62,30.35,30.02,19,10,28,0.00
2013-11-20,45,39,30,40,34,28,97,83,65,30.34,30.25,15,11,21,0.00
2013-11-21,46,43,40,44,41,36,100,91,79,30.23,30.16,9,4,13,0.00
2013-11-22,42,33,26,42,31,21,100,94,80,30.32,30.15,19,11,25,0.00
2013-11-23,31,22,16,31,15,-100,97,83,67,30.48,30.18,23,15,35,0.00
2013-11-24,28,19,11,24,15,3,96,83,59,30.54,30.21,20,6,29,0.00
2013-11-25,39,35,28,36,32,23,100,86,66,30.22,29.78,21,14,31,0.00
2013-11-30,38,34,32,38,29,-100,100,87,74,30.48,30.01,18,8,26,0.00
2013-12-1,36,34,31,36,32,26,100,92,82,30.13,30.05,6,3,8,0.00
2013-12-2,37,27,16,28,23,14,99,85,57,30.07,29.95,6,2,7,0.00
2013-12-3,29,20,9,26,18,6,96,90,84,30.04,29.99,12,6,17,0.00
2013-12-4,40,32,27,40,30,26,100,96,90,30.01,29.51,27,15,46,0.00
2013-12-5,49,35,22,48,27,11,99,74,60,29.99,29.42,26,18,42,0.00
2013-12-6,28,22,15,17,13,8,75,68,58,30.29,30.11,16,11,21,0.00
2013-12-7,26,17,11,11,4,-100,79,63,50,30.51,30.33,12,10,22,0.00
2013-12-8,24,17,6,23,10,0,97,75,60,30.51,30.19,8,5,11,0.00
2013-12-9,32,25,12,31,22,1,99,89,66,30.19,29.74,18,6,30,0.00
2013-12-10,18,9,2,12,-10,-100,87,76,67,29.96,29.79,18,7,28,0.00
2013-12-11,19,12,6,10,5,-3,77,71,62,30.29,29.94,17,12,23,0.00
2013-12-12,20,12,3,9,2,-6,79,65,52,30.29,30.01,17,11,23,0.00
2013-12-25,25,19,2,24,17,-2,95,89,83,30.46,30.02,23,12,30,0.00
2013-12-26,27,19,8,18,14,5,90,81,66,30.17,29.98,13,6,19,0.00
2013-12-27,39,13,-1,36,1,-100,93,85,77,30.20,29.83,14,6,20,0.00
2013-12-28,40,36,36,39,32,-100,99,92,88,29.96,29.81,13,6,15,0.00
2013-12-29,35,16,4,35,14,0,99,90,82,30.07,29.78,17,4,34,0.00
2013-12-30,15,0,-16,8,-21,-100,84,77,70,30.24,30.07,28,2,39,0.00
2013-12-31,17,9,4,7,3,-2,86,75,57,30.25,30.01,18,10,44,0.00
2014-1-1,4,-1,-14,-2,-38,-100,82,72,48,30.50,30.25,17,6,23,0.00
2014-1-2,7,-7,-17,-8,-17,-100,79,71,48,30.48,30.34,7,2,12,0.00